createdAt,value
2019-05-26T00:00:56.876Z,13.30
2019-05-26T00:03:26.433Z,13.30
2019-05-26T00:05:55.891Z,13.30
2019-05-26T00:08:25.383Z,13.30
2019-05-26T00:10:54.813Z,13.30
2019-05-26T00:13:24.504Z,13.20
2019-05-26T00:15:53.940Z,13.20
2019-05-26T00:18:23.472Z,13.10
2019-05-26T00:20:52.916Z,13.20
2019-05-26T00:23:22.448Z,13.30
2019-05-26T00:25:51.920Z,13.20
2019-05-26T00:28:21.397Z,13.10
2019-05-26T00:30:50.904Z,13.20
2019-05-26T00:33:20.464Z,13.10
2019-05-26T00:35:49.931Z,13.10
2019-05-26T00:38:19.378Z,13.00
2019-05-26T00:40:49.265Z,13.00
2019-05-26T00:43:18.783Z,13.10
2019-05-26T00:45:48.296Z,13.10
2019-05-26T00:48:17.760Z,13.00
2019-05-26T00:50:50.192Z,13.00
2019-05-26T00:53:19.818Z,12.90
2019-05-26T00:55:49.360Z,12.90
2019-05-26T00:58:18.827Z,12.90
2019-05-26T01:00:48.289Z,12.80
2019-05-26T01:03:17.910Z,12.90
2019-05-26T01:05:47.504Z,12.90
2019-05-26T01:08:16.987Z,12.80
2019-05-26T01:10:46.814Z,12.80
2019-05-26T01:13:16.309Z,12.70
2019-05-26T01:15:45.897Z,12.80
2019-05-26T01:18:15.367Z,12.70
2019-05-26T01:20:44.909Z,12.60
2019-05-26T01:23:14.581Z,12.50
2019-05-26T01:25:44.463Z,12.40
2019-05-26T01:28:14.005Z,12.50
2019-05-26T01:30:43.498Z,12.60
2019-05-26T01:33:12.962Z,12.60
2019-05-26T01:35:42.958Z,12.50
2019-05-26T01:38:23.811Z,12.40
2019-05-26T01:40:45.957Z,12.40
2019-05-26T01:43:15.433Z,12.30
2019-05-26T01:45:45.684Z,12.30
2019-05-26T01:48:15.172Z,12.10
2019-05-26T01:50:45.722Z,12.10
2019-05-26T01:53:15.253Z,12.20
2019-05-26T01:55:44.798Z,12.10
2019-05-26T01:58:14.284Z,12.00
2019-05-26T02:00:43.822Z,12.20
2019-05-26T02:03:13.314Z,12.30
2019-05-26T02:05:42.823Z,12.30
2019-05-26T02:08:12.559Z,12.30
2019-05-26T02:10:42.339Z,12.30
2019-05-26T02:13:11.890Z,12.20
2019-05-26T02:15:41.492Z,12.20
2019-05-26T02:18:11.194Z,12.00
2019-05-26T02:20:40.708Z,12.10
2019-05-26T02:23:10.178Z,12.00
2019-05-26T02:25:39.748Z,11.90
2019-05-26T02:28:09.277Z,12.00
2019-05-26T02:30:38.821Z,12.00
2019-05-26T02:33:08.261Z,11.90
2019-05-26T02:35:37.722Z,12.00
2019-05-26T02:38:07.417Z,12.00
2019-05-26T02:40:37.093Z,12.00
2019-05-26T02:43:06.610Z,11.90
2019-05-26T02:45:36.367Z,11.90
2019-05-26T02:48:06.012Z,11.80
2019-05-26T02:50:35.669Z,11.60
2019-05-26T02:53:05.302Z,11.70
2019-05-26T02:55:34.797Z,11.70
2019-05-26T02:58:04.404Z,11.80
2019-05-26T03:00:41.881Z,11.70
2019-05-26T03:03:12.632Z,11.70
2019-05-26T03:05:43.986Z,11.70
2019-05-26T03:08:15.310Z,11.60
2019-05-26T03:10:45.846Z,11.60
2019-05-26T03:13:17.181Z,11.70
2019-05-26T03:15:47.981Z,11.60
2019-05-26T03:18:18.154Z,11.60
2019-05-26T03:20:48.528Z,11.60
2019-05-26T03:23:18.420Z,11.50
2019-05-26T03:25:48.212Z,11.50
2019-05-26T03:28:17.798Z,11.50
2019-05-26T03:30:47.659Z,11.50
2019-05-26T03:33:17.408Z,11.60
2019-05-26T03:35:47.000Z,11.70
2019-05-26T03:38:16.710Z,11.70
2019-05-26T03:40:46.158Z,11.50
2019-05-26T03:43:15.870Z,11.50
2019-05-26T03:46:17.503Z,11.60
2019-05-26T03:48:47.626Z,11.60
2019-05-26T03:51:17.360Z,11.60
2019-05-26T03:53:47.093Z,11.60
2019-05-26T03:56:16.789Z,11.50
2019-05-26T03:58:46.733Z,11.50
2019-05-26T04:01:16.598Z,11.50
2019-05-26T04:03:46.289Z,11.50
2019-05-26T04:06:15.969Z,11.40
2019-05-26T04:08:45.530Z,11.50
2019-05-26T04:11:15.174Z,11.50
2019-05-26T04:13:44.729Z,11.50
2019-05-26T04:16:14.260Z,11.50
2019-05-26T04:18:43.794Z,11.50
2019-05-26T04:21:13.398Z,11.50
2019-05-26T04:23:42.939Z,11.50
2019-05-26T04:26:12.605Z,11.60
2019-05-26T04:28:42.126Z,11.60
2019-05-26T04:31:11.709Z,11.60
2019-05-26T04:33:41.298Z,11.70
2019-05-26T04:36:10.901Z,11.60
2019-05-26T04:38:40.433Z,11.70
2019-05-26T04:41:09.987Z,11.70
2019-05-26T04:43:39.536Z,11.70
2019-05-26T04:46:09.281Z,11.80
2019-05-26T04:48:39.048Z,11.80
2019-05-26T04:51:08.790Z,11.80
2019-05-26T04:53:38.311Z,11.80
2019-05-26T04:56:07.783Z,11.90
2019-05-26T04:58:37.295Z,11.90
2019-05-26T05:01:06.900Z,11.90
2019-05-26T05:03:36.362Z,11.90
2019-05-26T05:06:05.832Z,11.90
2019-05-26T05:08:35.380Z,11.90
2019-05-26T05:11:05.001Z,11.90
2019-05-26T05:13:34.456Z,12.00
2019-05-26T05:16:04.169Z,12.00
2019-05-26T05:18:33.640Z,12.00
2019-05-26T05:21:03.095Z,12.00
2019-05-26T05:23:32.704Z,12.00
2019-05-26T05:26:02.163Z,12.10
2019-05-26T05:28:31.708Z,12.00
2019-05-26T05:31:01.412Z,12.00
2019-05-26T05:33:30.900Z,12.10
2019-05-26T05:36:00.344Z,12.10
2019-05-26T05:38:29.820Z,12.10
2019-05-26T05:41:00.373Z,12.10
2019-05-26T05:43:30.058Z,12.20
2019-05-26T05:45:59.522Z,12.20
2019-05-26T05:48:28.981Z,12.30
2019-05-26T05:50:58.525Z,12.40
2019-05-26T05:53:28.065Z,12.50
2019-05-26T05:55:57.536Z,12.50
2019-05-26T05:58:26.971Z,12.50
2019-05-26T06:00:56.465Z,12.60
2019-05-26T06:03:25.915Z,12.60
2019-05-26T06:05:55.393Z,12.70
2019-05-26T06:08:24.878Z,12.80
2019-05-26T06:10:54.433Z,12.80
2019-05-26T06:13:23.955Z,12.90
2019-05-26T06:15:53.461Z,13.00
2019-05-26T06:18:22.920Z,12.90
2019-05-26T06:20:52.511Z,12.90
2019-05-26T06:23:22.001Z,13.00
2019-05-26T06:25:51.501Z,13.00
2019-05-26T06:28:21.041Z,13.10
2019-05-26T06:30:50.627Z,13.10
2019-05-26T06:33:20.121Z,13.10
2019-05-26T06:35:49.694Z,13.20
2019-05-26T06:38:19.585Z,13.20
2019-05-26T06:40:49.298Z,13.30
2019-05-26T06:43:19.920Z,13.30
2019-05-26T06:45:49.416Z,13.40
2019-05-26T06:48:19.036Z,13.50
2019-05-26T06:50:48.852Z,13.50
2019-05-26T06:53:18.304Z,13.60
2019-05-26T06:55:47.988Z,13.60
2019-05-26T06:58:17.591Z,13.70
2019-05-26T07:00:47.158Z,13.80
2019-05-26T07:03:23.779Z,13.70
2019-05-26T07:05:56.868Z,13.80
2019-05-26T07:08:26.378Z,13.80
2019-05-26T07:10:55.896Z,13.90
2019-05-26T07:13:25.422Z,13.90
2019-05-26T07:15:54.936Z,14.00
2019-05-26T07:18:24.544Z,14.00
2019-05-26T07:20:54.052Z,14.10
2019-05-26T07:23:23.583Z,14.10
2019-05-26T07:25:53.152Z,14.10
2019-05-26T07:28:22.758Z,14.20
2019-05-26T07:30:52.317Z,14.30
2019-05-26T07:33:21.805Z,14.40
2019-05-26T07:35:51.408Z,14.50
2019-05-26T07:38:20.897Z,14.50
2019-05-26T07:40:50.403Z,14.50
2019-05-26T07:43:19.856Z,14.60
2019-05-26T07:45:49.325Z,14.70
2019-05-26T07:48:18.883Z,14.80
2019-05-26T07:50:48.615Z,14.80
2019-05-26T07:53:18.147Z,14.90
2019-05-26T07:55:47.833Z,15.00
2019-05-26T07:58:17.506Z,15.10
2019-05-26T08:00:47.167Z,15.20
2019-05-26T08:03:16.640Z,15.20
2019-05-26T08:05:46.201Z,15.20
2019-05-26T08:08:15.668Z,15.30
2019-05-26T08:10:45.224Z,15.30
2019-05-26T08:13:14.922Z,15.40
2019-05-26T08:15:44.712Z,15.40
2019-05-26T08:18:14.182Z,15.40
2019-05-26T08:20:43.928Z,15.60
2019-05-26T08:23:13.440Z,15.60
2019-05-26T08:25:43.026Z,15.80
2019-05-26T08:28:12.720Z,15.80
2019-05-26T08:30:42.181Z,15.80
2019-05-26T08:33:11.783Z,15.90
2019-05-26T08:35:41.373Z,15.90
2019-05-26T08:38:10.881Z,15.90
2019-05-26T08:40:40.371Z,16.00
2019-05-26T08:43:09.974Z,16.10
2019-05-26T08:45:39.585Z,16.20
2019-05-26T08:48:09.206Z,16.30
2019-05-26T08:50:38.674Z,16.40
2019-05-26T08:53:08.148Z,16.50
2019-05-26T08:55:37.719Z,16.60
2019-05-26T08:58:07.290Z,16.70
2019-05-26T09:00:36.937Z,16.70
2019-05-26T09:03:06.499Z,16.80
2019-05-26T09:05:36.058Z,16.90
2019-05-26T09:08:08.179Z,17.00
2019-05-26T09:10:38.663Z,17.10
2019-05-26T09:13:08.157Z,17.30
2019-05-26T09:15:37.809Z,17.50
2019-05-26T09:18:07.320Z,17.70
2019-05-26T09:20:36.833Z,17.80
2019-05-26T09:23:07.851Z,17.90
2019-05-26T09:25:37.351Z,18.00
2019-05-26T09:28:06.935Z,18.10
2019-05-26T09:30:36.507Z,18.40
2019-05-26T09:33:06.093Z,18.10
2019-05-26T09:35:35.724Z,18.10
2019-05-26T09:38:05.669Z,18.00
2019-05-26T09:40:35.134Z,17.80
2019-05-26T09:43:15.600Z,18.00
2019-05-26T09:45:36.059Z,18.20
2019-05-26T09:48:05.795Z,18.30
2019-05-26T09:50:35.333Z,18.40
2019-05-26T09:53:04.845Z,18.40
2019-05-26T09:55:34.490Z,18.70
2019-05-26T09:58:10.176Z,18.90
2019-05-26T10:00:49.274Z,18.90
2019-05-26T10:03:35.475Z,18.80
2019-05-26T10:06:05.281Z,18.80
2019-05-26T10:08:34.928Z,18.70
2019-05-26T10:11:04.703Z,18.80
2019-05-26T10:13:34.268Z,19.30
2019-05-26T10:16:08.189Z,19.40
2019-05-26T10:18:37.825Z,19.40
2019-05-26T10:21:07.304Z,19.20
2019-05-26T10:23:36.918Z,18.90
2019-05-26T10:26:06.515Z,18.80
2019-05-26T10:28:36.137Z,19.00
2019-05-26T10:31:05.700Z,19.10
2019-05-26T10:33:35.293Z,19.30
2019-05-26T10:36:04.945Z,19.50
2019-05-26T10:38:34.558Z,19.80
2019-05-26T10:41:04.277Z,19.70
2019-05-26T10:43:46.256Z,19.70
2019-05-26T10:46:05.201Z,19.90
2019-05-26T10:48:34.801Z,19.90
2019-05-26T10:51:06.865Z,19.70
2019-05-26T10:53:35.566Z,19.70
2019-05-26T10:56:05.177Z,19.80
2019-05-26T10:58:34.848Z,19.70
2019-05-26T11:01:04.777Z,19.70
2019-05-26T11:03:34.300Z,19.70
2019-05-26T11:06:04.224Z,19.70
2019-05-26T11:08:33.763Z,19.70
2019-05-26T11:11:03.274Z,19.80
2019-05-26T11:13:32.782Z,19.90
2019-05-26T11:16:02.261Z,20.10
2019-05-26T11:18:31.900Z,20.10
2019-05-26T11:21:01.370Z,20.00
2019-05-26T11:23:31.045Z,19.80
2019-05-26T11:26:00.636Z,19.70
2019-05-26T11:28:30.220Z,19.70
2019-05-26T11:30:59.864Z,19.70
2019-05-26T11:33:29.630Z,19.70
2019-05-26T11:35:59.144Z,19.70
2019-05-26T11:38:28.588Z,19.70
2019-05-26T11:40:58.800Z,19.70
2019-05-26T11:43:29.171Z,19.70
2019-05-26T11:45:58.708Z,19.70
2019-05-26T11:48:28.328Z,19.70
2019-05-26T11:50:57.860Z,19.80
2019-05-26T11:53:27.481Z,19.90
2019-05-26T11:55:57.037Z,19.90
2019-05-26T11:58:26.698Z,19.90
2019-05-26T12:00:56.167Z,19.90
2019-05-26T12:03:25.957Z,20.00
2019-05-26T12:05:55.566Z,20.00
2019-05-26T12:08:25.127Z,20.10
2019-05-26T12:11:11.299Z,20.20
2019-05-26T12:13:51.041Z,20.10
2019-05-26T12:16:23.465Z,20.10
2019-05-26T12:18:53.003Z,20.10
2019-05-26T12:21:26.152Z,20.10
2019-05-26T12:27:19.052Z,20.30
2019-05-26T12:29:48.781Z,20.20
2019-05-26T12:32:18.282Z,20.30
2019-05-26T12:34:48.535Z,20.30
2019-05-26T12:37:19.253Z,20.50
2019-05-26T12:39:48.773Z,20.50
2019-05-26T12:42:18.349Z,20.40
2019-05-26T12:44:49.835Z,20.50
2019-05-26T12:47:19.751Z,20.40
2019-05-26T12:49:49.354Z,20.40
2019-05-26T12:52:19.233Z,20.40
2019-05-26T12:54:48.958Z,20.50
2019-05-26T12:57:18.583Z,20.60
2019-05-26T13:00:04.242Z,20.60
2019-05-26T13:02:33.755Z,20.60
2019-05-26T13:05:03.467Z,20.50
2019-05-26T13:07:33.103Z,20.50
2019-05-26T13:10:02.685Z,20.50
2019-05-26T13:12:32.254Z,20.50
2019-05-26T13:15:06.068Z,20.60
2019-05-26T13:17:33.012Z,20.60
2019-05-26T13:20:02.504Z,20.60
2019-05-26T13:22:32.066Z,20.70
2019-05-26T13:25:01.655Z,20.70
2019-05-26T13:27:31.456Z,20.70
2019-05-26T13:30:01.078Z,20.70
2019-05-26T13:32:30.592Z,20.70
2019-05-26T13:35:00.285Z,20.70
2019-05-26T13:37:29.832Z,20.70
2019-05-26T13:40:00.919Z,20.70
2019-05-26T13:42:30.473Z,20.70
2019-05-26T13:44:59.962Z,20.70
2019-05-26T13:47:30.507Z,20.70
2019-05-26T13:50:00.156Z,20.60
2019-05-26T13:52:29.641Z,20.60
2019-05-26T13:54:59.217Z,20.60
2019-05-26T13:57:28.923Z,20.60
2019-05-26T13:59:58.445Z,20.70
2019-05-26T14:02:28.303Z,20.70
2019-05-26T14:04:57.843Z,20.70
2019-05-26T14:07:27.376Z,20.70
2019-05-26T14:09:57.137Z,20.70
2019-05-26T14:12:28.014Z,20.70
2019-05-26T14:14:57.636Z,20.80
2019-05-26T14:17:28.628Z,20.80
2019-05-26T14:20:01.296Z,20.80
2019-05-26T14:22:30.917Z,20.80
2019-05-26T14:25:01.338Z,20.80
2019-05-26T14:27:31.011Z,20.80
2019-05-26T14:30:00.563Z,20.80
2019-05-26T14:32:30.127Z,20.80
2019-05-26T14:34:59.592Z,20.80
2019-05-26T14:37:29.147Z,20.80
2019-05-26T14:39:58.920Z,20.80
2019-05-26T14:42:28.398Z,20.80
2019-05-26T14:44:57.880Z,20.70
2019-05-26T14:47:27.345Z,20.80
2019-05-26T14:49:56.808Z,20.80
2019-05-26T14:52:26.294Z,20.80
2019-05-26T14:54:55.848Z,20.90
2019-05-26T14:57:25.320Z,20.90
2019-05-26T14:59:54.828Z,20.90
2019-05-26T15:02:24.440Z,20.90
2019-05-26T15:04:54.080Z,20.90
2019-05-26T15:07:23.756Z,20.90
2019-05-26T15:09:53.370Z,20.90
2019-05-26T15:12:22.939Z,21.00
2019-05-26T15:14:52.461Z,21.00
2019-05-26T15:17:22.055Z,21.00
2019-05-26T15:19:51.683Z,21.00
2019-05-26T15:22:21.238Z,21.00
2019-05-26T15:24:50.799Z,21.00
2019-05-26T15:27:20.297Z,21.00
2019-05-26T15:29:49.853Z,21.10
2019-05-26T15:32:19.349Z,21.10
2019-05-26T15:34:48.967Z,21.00
2019-05-26T15:37:18.457Z,21.00
2019-05-26T15:39:47.910Z,21.00
2019-05-26T15:42:17.408Z,21.00
2019-05-26T15:44:46.883Z,21.00
2019-05-26T15:47:16.390Z,21.00
2019-05-26T15:49:45.985Z,21.00
2019-05-26T15:52:15.523Z,21.00
2019-05-26T15:54:45.087Z,21.00
2019-05-26T15:57:14.650Z,21.10
2019-05-26T15:59:44.112Z,21.00
2019-05-26T16:02:14.878Z,20.90
2019-05-26T16:04:45.635Z,20.90
2019-05-26T16:07:15.337Z,20.90
2019-05-26T16:09:44.900Z,20.80
2019-05-26T16:12:14.548Z,20.80
2019-05-26T16:14:44.036Z,20.80
2019-05-26T16:17:13.594Z,20.80
2019-05-26T16:19:43.343Z,20.80
2019-05-26T16:22:12.810Z,20.80
2019-05-26T16:24:42.698Z,20.80
2019-05-26T16:27:19.032Z,20.80
2019-05-26T16:29:46.477Z,20.80
2019-05-26T16:32:18.470Z,20.70
2019-05-26T16:34:46.221Z,20.70
2019-05-26T16:37:15.700Z,20.70
2019-05-26T16:39:46.157Z,20.70
2019-05-26T16:42:15.652Z,20.70
2019-05-26T16:44:45.221Z,20.70
2019-05-26T16:47:14.768Z,20.70
2019-05-26T16:49:44.325Z,20.70
2019-05-26T16:52:13.805Z,20.80
2019-05-26T16:54:43.348Z,20.80
2019-05-26T16:57:12.854Z,20.80
2019-05-26T16:59:42.601Z,20.90
2019-05-26T17:02:12.069Z,20.90
2019-05-26T17:04:41.677Z,20.80
2019-05-26T17:07:11.333Z,20.80
2019-05-26T17:09:41.145Z,20.80
2019-05-26T17:12:10.693Z,20.80
2019-05-26T17:14:40.215Z,20.80
2019-05-26T17:17:14.708Z,20.80
2019-05-26T17:19:41.077Z,20.80
2019-05-26T17:22:10.705Z,20.80
2019-05-26T17:24:40.243Z,20.80
2019-05-26T17:27:09.722Z,20.80
2019-05-26T17:29:39.223Z,20.70
2019-05-26T17:32:08.695Z,20.80
2019-05-26T17:34:38.189Z,20.80
2019-05-26T17:37:07.743Z,20.70
2019-05-26T17:39:37.264Z,20.70
2019-05-26T17:42:06.968Z,20.80
2019-05-26T17:44:36.608Z,20.70
2019-05-26T17:47:06.094Z,20.70
2019-05-26T17:49:35.695Z,20.70
2019-05-26T17:52:05.406Z,20.70
2019-05-26T17:54:35.002Z,20.70
2019-05-26T17:57:04.703Z,20.70
2019-05-26T17:59:34.373Z,20.70
2019-05-26T18:02:03.992Z,20.60
2019-05-26T18:04:33.497Z,20.60
2019-05-26T18:07:03.186Z,20.60
2019-05-26T18:09:43.572Z,20.60
2019-05-26T18:12:03.893Z,20.60
2019-05-26T18:14:33.373Z,20.60
2019-05-26T18:17:02.940Z,20.60
2019-05-26T18:19:32.475Z,20.50
2019-05-26T18:22:01.942Z,20.50
2019-05-26T18:24:31.428Z,20.50
2019-05-26T18:27:00.980Z,20.50
2019-05-26T18:29:30.608Z,20.40
2019-05-26T18:32:00.494Z,20.40
2019-05-26T18:34:30.191Z,20.40
2019-05-26T18:36:59.873Z,20.40
2019-05-26T18:39:29.309Z,20.40
2019-05-26T18:41:58.848Z,20.30
2019-05-26T18:44:28.407Z,20.30
2019-05-26T18:46:58.085Z,20.30
2019-05-26T18:49:27.557Z,20.20
2019-05-26T18:51:57.079Z,20.20
2019-05-26T18:54:26.555Z,20.20
2019-05-26T18:56:56.153Z,20.20
2019-05-26T18:59:25.617Z,20.20
2019-05-26T19:01:55.592Z,20.20
2019-05-26T19:04:25.068Z,20.20
2019-05-26T19:06:55.020Z,20.20
2019-05-26T19:09:36.927Z,20.10
2019-05-26T19:12:06.650Z,20.10
2019-05-26T19:14:36.369Z,20.10
2019-05-26T19:17:06.209Z,20.10
2019-05-26T19:19:35.790Z,20.10
2019-05-26T19:22:05.532Z,20.20
2019-05-26T19:24:35.294Z,20.20
2019-05-26T19:27:05.072Z,20.10
2019-05-26T19:29:34.552Z,20.10
2019-05-26T19:32:04.476Z,20.10
2019-05-26T19:34:33.937Z,20.10
2019-05-26T19:37:03.481Z,20.10
2019-05-26T19:39:33.132Z,20.10
2019-05-26T19:42:02.695Z,20.10
2019-05-26T19:44:32.160Z,20.00
2019-05-26T19:47:01.862Z,20.00
2019-05-26T19:49:31.421Z,20.00
2019-05-26T19:52:00.965Z,20.00
2019-05-26T19:54:30.650Z,19.90
2019-05-26T19:57:00.144Z,19.90
2019-05-26T19:59:29.666Z,19.90
2019-05-26T20:02:14.909Z,19.90
2019-05-26T20:04:30.469Z,19.90
2019-05-26T20:07:00.081Z,19.90
2019-05-26T20:09:29.632Z,19.80
2019-05-26T20:11:59.129Z,19.80
2019-05-26T20:14:28.640Z,19.80
2019-05-26T20:16:58.292Z,19.80
2019-05-26T20:19:27.753Z,19.80
2019-05-26T20:21:57.227Z,19.80
2019-05-26T20:24:25.900Z,19.80
2019-05-26T20:26:55.388Z,19.80
2019-05-26T20:29:24.945Z,19.80
2019-05-26T20:31:55.140Z,19.80
2019-05-26T20:34:24.735Z,19.70
2019-05-26T20:36:54.233Z,19.70
2019-05-26T20:39:23.733Z,19.70
2019-05-26T20:41:53.309Z,19.60
2019-05-26T20:44:22.795Z,19.60
2019-05-26T20:46:52.291Z,19.60
2019-05-26T20:49:21.991Z,19.60
2019-05-26T20:51:51.644Z,19.60
2019-05-26T20:54:21.130Z,19.60
2019-05-26T20:56:50.679Z,19.60
2019-05-26T20:59:20.289Z,19.60
2019-05-26T21:01:49.760Z,19.60
2019-05-26T21:04:19.252Z,19.50
2019-05-26T21:06:48.732Z,19.50
2019-05-26T21:09:18.267Z,19.50
2019-05-26T21:11:47.785Z,19.50
2019-05-26T21:14:17.376Z,19.50
2019-05-26T21:16:46.984Z,19.50
2019-05-26T21:19:16.542Z,19.50
2019-05-26T21:21:46.175Z,19.50
2019-05-26T21:24:15.747Z,19.40
2019-05-26T21:26:45.321Z,19.40
2019-05-26T21:29:14.800Z,19.40
2019-05-26T21:31:44.373Z,19.30
2019-05-26T21:34:14.048Z,19.30
2019-05-26T21:36:43.777Z,19.30
2019-05-26T21:39:13.594Z,19.30
2019-05-26T21:41:43.366Z,19.30
2019-05-26T21:44:13.015Z,19.30
2019-05-26T21:46:42.934Z,19.30
2019-05-26T21:49:12.594Z,19.30
2019-05-26T21:51:42.527Z,19.30
2019-05-26T21:54:12.047Z,19.30
2019-05-26T21:56:41.584Z,19.30
2019-05-26T21:59:11.073Z,19.20
2019-05-26T22:01:40.983Z,19.30
2019-05-26T22:04:11.110Z,19.20
2019-05-26T22:06:43.778Z,19.20
2019-05-26T22:09:13.267Z,19.20
2019-05-26T22:11:44.117Z,19.20
2019-05-26T22:14:13.559Z,19.20
2019-05-26T22:16:43.260Z,19.20
2019-05-26T22:19:12.731Z,19.10
2019-05-26T22:21:42.230Z,19.20
2019-05-26T22:24:11.709Z,19.20
2019-05-26T22:26:41.347Z,19.20
2019-05-26T22:29:10.831Z,19.20
2019-05-26T22:31:40.395Z,19.20
2019-05-26T22:34:09.821Z,19.10
2019-05-26T22:36:39.440Z,19.20
2019-05-26T22:39:08.998Z,19.10
2019-05-26T22:41:38.541Z,19.10
2019-05-26T22:44:11.071Z,19.10
2019-05-26T22:46:40.534Z,19.10
2019-05-26T22:49:10.068Z,19.10
2019-05-26T22:51:39.544Z,19.10
2019-05-26T22:54:09.168Z,19.10
2019-05-26T22:56:38.739Z,19.10
2019-05-26T22:59:08.283Z,19.00
2019-05-26T23:01:37.908Z,19.10
2019-05-26T23:04:07.451Z,19.10
2019-05-26T23:06:36.986Z,19.10
2019-05-26T23:09:06.980Z,19.10
2019-05-26T23:11:36.441Z,19.10
2019-05-26T23:14:06.082Z,19.10
2019-05-26T23:16:35.721Z,19.10
2019-05-26T23:19:18.272Z,19.10
2019-05-26T23:21:36.408Z,19.10
2019-05-26T23:24:05.977Z,19.10
2019-05-26T23:26:35.578Z,19.00
2019-05-26T23:29:05.232Z,19.10
2019-05-26T23:31:34.721Z,19.10
2019-05-26T23:34:04.367Z,19.00
2019-05-26T23:36:33.922Z,19.00
2019-05-26T23:39:04.301Z,19.00
2019-05-26T23:41:33.915Z,19.00
2019-05-26T23:44:03.527Z,19.00
2019-05-26T23:46:32.994Z,19.00
2019-05-26T23:49:02.562Z,19.00
2019-05-26T23:51:32.183Z,19.00
2019-05-26T23:54:01.688Z,18.90
2019-05-26T23:56:31.221Z,18.90
2019-05-26T23:59:00.697Z,18.90
